sensor_id;sensor_type;location;lat;lon;timestamp;temperature;humidity
15713;DHT22;7957;51.608;6.916;2023-09-19T00:00:22;17.50;99.90
15713;DHT22;7957;51.608;6.916;2023-09-19T00:02:53;17.40;99.90
15713;DHT22;7957;51.608;6.916;2023-09-19T00:05:23;17.40;99.90
15713;DHT22;7957;51.608;6.916;2023-09-19T00:07:53;17.40;99.90
15713;DHT22;7957;51.608;6.916;2023-09-19T00:10:21;17.40;99.90
15713;DHT22;7957;51.608;6.916;2023-09-19T00:12:50;17.40;99.90
15713;DHT22;7957;51.608;6.916;2023-09-19T00:15:19;17.30;99.90
15713;DHT22;7957;51.608;6.916;2023-09-19T00:17:46;17.30;99.90
15713;DHT22;7957;51.608;6.916;2023-09-19T00:20:14;17.30;99.90
15713;DHT22;7957;51.608;6.916;2023-09-19T00:22:43;17.30;99.90
15713;DHT22;7957;51.608;6.916;2023-09-19T00:25:11;17.30;99.90
15713;DHT22;7957;51.608;6.916;2023-09-19T00:27:41;17.20;99.90
15713;DHT22;7957;51.608;6.916;2023-09-19T00:30:10;17.20;99.90
15713;DHT22;7957;51.608;6.916;2023-09-19T00:32:43;17.20;99.90
15713;DHT22;7957;51.608;6.916;2023-09-19T00:35:13;17.20;99.90
15713;DHT22;7957;51.608;6.916;2023-09-19T00:37:40;17.20;99.90
15713;DHT22;7957;51.608;6.916;2023-09-19T00:40:09;17.20;99.90
15713;DHT22;7957;51.608;6.916;2023-09-19T00:42:38;17.10;99.90
15713;DHT22;7957;51.608;6.916;2023-09-19T00:45:07;17.20;99.90
15713;DHT22;7957;51.608;6.916;2023-09-19T00:47:35;17.10;99.90
15713;DHT22;7957;51.608;6.916;2023-09-19T00:50:06;17.10;99.90
15713;DHT22;7957;51.608;6.916;2023-09-19T00:52:36;17.10;99.90
15713;DHT22;7957;51.608;6.916;2023-09-19T00:55:05;17.10;99.90
15713;DHT22;7957;51.608;6.916;2023-09-19T00:57:33;17.10;99.90
15713;DHT22;7957;51.608;6.916;2023-09-19T01:00:00;17.10;99.90
15713;DHT22;7957;51.608;6.916;2023-09-19T01:02:34;17.10;99.90
15713;DHT22;7957;51.608;6.916;2023-09-19T01:05:01;17.10;99.90
15713;DHT22;7957;51.608;6.916;2023-09-19T01:07:32;17.00;99.90
15713;DHT22;7957;51.608;6.916;2023-09-19T01:09:59;17.00;99.90
15713;DHT22;7957;51.608;6.916;2023-09-19T01:12:33;17.00;99.90
15713;DHT22;7957;51.608;6.916;2023-09-19T01:15:06;17.00;99.90
15713;DHT22;7957;51.608;6.916;2023-09-19T01:17:43;17.00;99.90
15713;DHT22;7957;51.608;6.916;2023-09-19T01:20:20;17.00;99.90
15713;DHT22;7957;51.608;6.916;2023-09-19T01:23:00;16.90;99.90
15713;DHT22;7957;51.608;6.916;2023-09-19T01:25:55;16.90;99.90
15713;DHT22;7957;51.608;6.916;2023-09-19T01:28:32;16.90;99.90
15713;DHT22;7957;51.608;6.916;2023-09-19T01:31:09;16.90;99.90
15713;DHT22;7957;51.608;6.916;2023-09-19T01:33:57;16.90;99.90
15713;DHT22;7957;51.608;6.916;2023-09-19T01:36:27;16.90;99.90
15713;DHT22;7957;51.608;6.916;2023-09-19T01:38:55;16.90;99.90
15713;DHT22;7957;51.608;6.916;2023-09-19T01:44:21;16.80;99.90
15713;DHT22;7957;51.608;6.916;2023-09-19T01:46:51;16.80;99.90
15713;DHT22;7957;51.608;6.916;2023-09-19T01:49:27;16.80;99.90
15713;DHT22;7957;51.608;6.916;2023-09-19T01:52:04;16.80;99.90
15713;DHT22;7957;51.608;6.916;2023-09-19T01:54:36;16.80;99.90
15713;DHT22;7957;51.608;6.916;2023-09-19T01:57:11;16.80;99.90
15713;DHT22;7957;51.608;6.916;2023-09-19T01:59:45;16.80;99.90
15713;DHT22;7957;51.608;6.916;2023-09-19T02:02:16;16.70;99.90
15713;DHT22;7957;51.608;6.916;2023-09-19T02:04:44;16.70;99.90
15713;DHT22;7957;51.608;6.916;2023-09-19T02:07:11;16.70;99.90
15713;DHT22;7957;51.608;6.916;2023-09-19T02:09:40;16.70;99.90
15713;DHT22;7957;51.608;6.916;2023-09-19T02:12:08;16.70;99.90
15713;DHT22;7957;51.608;6.916;2023-09-19T02:14:35;16.60;99.90
15713;DHT22;7957;51.608;6.916;2023-09-19T02:17:03;16.60;99.90
15713;DHT22;7957;51.608;6.916;2023-09-19T02:19:38;16.60;99.90
15713;DHT22;7957;51.608;6.916;2023-09-19T02:22:06;16.60;99.90
15713;DHT22;7957;51.608;6.916;2023-09-19T02:24:36;16.60;99.90
15713;DHT22;7957;51.608;6.916;2023-09-19T02:27:04;16.60;99.90
15713;DHT22;7957;51.608;6.916;2023-09-19T02:29:31;16.50;99.90
15713;DHT22;7957;51.608;6.916;2023-09-19T02:31:59;16.50;99.90
15713;DHT22;7957;51.608;6.916;2023-09-19T02:34:27;16.50;99.90
15713;DHT22;7957;51.608;6.916;2023-09-19T02:36:55;16.50;99.90
15713;DHT22;7957;51.608;6.916;2023-09-19T02:39:22;16.50;99.90
15713;DHT22;7957;51.608;6.916;2023-09-19T02:41:50;16.50;99.90
15713;DHT22;7957;51.608;6.916;2023-09-19T02:44:17;16.50;99.90
15713;DHT22;7957;51.608;6.916;2023-09-19T02:46:45;16.50;99.90
15713;DHT22;7957;51.608;6.916;2023-09-19T02:49:12;16.40;99.90
15713;DHT22;7957;51.608;6.916;2023-09-19T02:51:39;16.40;99.90
15713;DHT22;7957;51.608;6.916;2023-09-19T02:54:08;16.40;99.90
15713;DHT22;7957;51.608;6.916;2023-09-19T02:56:35;16.40;99.90
15713;DHT22;7957;51.608;6.916;2023-09-19T02:59:02;16.40;99.90
15713;DHT22;7957;51.608;6.916;2023-09-19T03:01:34;16.40;99.90
15713;DHT22;7957;51.608;6.916;2023-09-19T03:04:03;16.30;99.90
15713;DHT22;7957;51.608;6.916;2023-09-19T03:06:31;16.30;99.90
15713;DHT22;7957;51.608;6.916;2023-09-19T03:08:58;16.30;99.90
15713;DHT22;7957;51.608;6.916;2023-09-19T03:11:27;16.30;99.90
15713;DHT22;7957;51.608;6.916;2023-09-19T03:13:54;16.30;99.90
15713;DHT22;7957;51.608;6.916;2023-09-19T03:16:21;16.30;99.90
15713;DHT22;7957;51.608;6.916;2023-09-19T03:18:48;16.30;99.90
15713;DHT22;7957;51.608;6.916;2023-09-19T03:21:15;16.30;99.90
15713;DHT22;7957;51.608;6.916;2023-09-19T03:23:43;16.20;99.90
15713;DHT22;7957;51.608;6.916;2023-09-19T03:26:11;16.20;99.90
15713;DHT22;7957;51.608;6.916;2023-09-19T03:28:41;16.20;99.90
15713;DHT22;7957;51.608;6.916;2023-09-19T03:31:09;16.20;99.90
15713;DHT22;7957;51.608;6.916;2023-09-19T03:33:36;16.20;99.90
15713;DHT22;7957;51.608;6.916;2023-09-19T03:36:03;16.20;99.90
15713;DHT22;7957;51.608;6.916;2023-09-19T03:38:31;16.10;99.90
15713;DHT22;7957;51.608;6.916;2023-09-19T03:40:59;16.10;99.90
15713;DHT22;7957;51.608;6.916;2023-09-19T03:43:26;16.10;99.90
15713;DHT22;7957;51.608;6.916;2023-09-19T03:45:55;16.10;99.90
15713;DHT22;7957;51.608;6.916;2023-09-19T03:48:22;16.10;99.90
15713;DHT22;7957;51.608;6.916;2023-09-19T03:50:49;16.10;99.90
15713;DHT22;7957;51.608;6.916;2023-09-19T03:53:16;16.10;99.90
15713;DHT22;7957;51.608;6.916;2023-09-19T03:55:45;16.00;99.90
15713;DHT22;7957;51.608;6.916;2023-09-19T03:58:12;16.00;99.90
15713;DHT22;7957;51.608;6.916;2023-09-19T04:00:42;16.00;99.90
15713;DHT22;7957;51.608;6.916;2023-09-19T04:03:12;16.00;99.90
15713;DHT22;7957;51.608;6.916;2023-09-19T04:05:45;16.00;99.90
15713;DHT22;7957;51.608;6.916;2023-09-19T04:08:12;16.00;99.90
15713;DHT22;7957;51.608;6.916;2023-09-19T04:10:42;15.90;99.90
15713;DHT22;7957;51.608;6.916;2023-09-19T04:13:09;16.00;99.90
15713;DHT22;7957;51.608;6.916;2023-09-19T04:15:36;15.90;99.90
15713;DHT22;7957;51.608;6.916;2023-09-19T04:18:03;15.90;99.90
15713;DHT22;7957;51.608;6.916;2023-09-19T04:20:32;15.90;99.90
15713;DHT22;7957;51.608;6.916;2023-09-19T04:22:59;15.90;99.90
15713;DHT22;7957;51.608;6.916;2023-09-19T04:25:26;15.90;99.90
15713;DHT22;7957;51.608;6.916;2023-09-19T04:27:53;15.90;99.90
15713;DHT22;7957;51.608;6.916;2023-09-19T04:30:20;15.90;99.90
15713;DHT22;7957;51.608;6.916;2023-09-19T04:32:47;15.90;99.90
15713;DHT22;7957;51.608;6.916;2023-09-19T04:35:16;15.90;99.90
15713;DHT22;7957;51.608;6.916;2023-09-19T04:37:44;15.90;99.90
15713;DHT22;7957;51.608;6.916;2023-09-19T04:40:12;15.90;99.90
15713;DHT22;7957;51.608;6.916;2023-09-19T04:42:40;15.90;99.90
15713;DHT22;7957;51.608;6.916;2023-09-19T04:45:08;15.80;99.90
15713;DHT22;7957;51.608;6.916;2023-09-19T04:47:36;15.80;99.90
15713;DHT22;7957;51.608;6.916;2023-09-19T04:50:07;15.80;99.90
15713;DHT22;7957;51.608;6.916;2023-09-19T04:52:38;15.80;99.90
15713;DHT22;7957;51.608;6.916;2023-09-19T04:55:08;15.80;99.90
15713;DHT22;7957;51.608;6.916;2023-09-19T04:57:36;15.80;99.90
15713;DHT22;7957;51.608;6.916;2023-09-19T05:00:05;15.80;99.90
15713;DHT22;7957;51.608;6.916;2023-09-19T05:02:38;15.80;99.90
15713;DHT22;7957;51.608;6.916;2023-09-19T05:05:06;15.80;99.90
15713;DHT22;7957;51.608;6.916;2023-09-19T05:07:33;15.80;99.90
15713;DHT22;7957;51.608;6.916;2023-09-19T05:10:01;15.80;99.90
15713;DHT22;7957;51.608;6.916;2023-09-19T05:12:32;15.80;99.90
15713;DHT22;7957;51.608;6.916;2023-09-19T05:14:59;15.80;99.90
15713;DHT22;7957;51.608;6.916;2023-09-19T05:17:26;15.80;99.90
15713;DHT22;7957;51.608;6.916;2023-09-19T05:19:53;15.80;99.90
15713;DHT22;7957;51.608;6.916;2023-09-19T05:22:20;15.80;99.90
15713;DHT22;7957;51.608;6.916;2023-09-19T05:24:50;15.80;99.90
15713;DHT22;7957;51.608;6.916;2023-09-19T05:27:18;15.80;99.90
15713;DHT22;7957;51.608;6.916;2023-09-19T05:29:48;15.80;99.90
15713;DHT22;7957;51.608;6.916;2023-09-19T05:32:16;15.70;99.90
15713;DHT22;7957;51.608;6.916;2023-09-19T05:34:43;15.80;99.90
15713;DHT22;7957;51.608;6.916;2023-09-19T05:37:10;15.80;99.90
15713;DHT22;7957;51.608;6.916;2023-09-19T05:39:39;15.80;99.90
15713;DHT22;7957;51.608;6.916;2023-09-19T05:42:05;15.70;99.90
15713;DHT22;7957;51.608;6.916;2023-09-19T05:44:33;15.80;99.90
15713;DHT22;7957;51.608;6.916;2023-09-19T05:47:02;15.80;99.90
15713;DHT22;7957;51.608;6.916;2023-09-19T05:49:29;15.80;99.90
15713;DHT22;7957;51.608;6.916;2023-09-19T05:51:56;15.80;99.90
15713;DHT22;7957;51.608;6.916;2023-09-19T05:54:24;15.80;99.90
15713;DHT22;7957;51.608;6.916;2023-09-19T05:56:51;15.80;99.90
15713;DHT22;7957;51.608;6.916;2023-09-19T05:59:19;15.80;99.90
15713;DHT22;7957;51.608;6.916;2023-09-19T06:01:48;15.90;99.90
15713;DHT22;7957;51.608;6.916;2023-09-19T06:04:16;15.90;99.90
15713;DHT22;7957;51.608;6.916;2023-09-19T06:06:44;15.90;99.90
15713;DHT22;7957;51.608;6.916;2023-09-19T06:09:14;15.90;99.90
15713;DHT22;7957;51.608;6.916;2023-09-19T06:11:41;15.90;99.90
15713;DHT22;7957;51.608;6.916;2023-09-19T06:14:08;15.90;99.90
15713;DHT22;7957;51.608;6.916;2023-09-19T06:16:36;15.90;99.90
15713;DHT22;7957;51.608;6.916;2023-09-19T06:19:05;15.90;99.90
15713;DHT22;7957;51.608;6.916;2023-09-19T06:21:35;16.00;99.90
15713;DHT22;7957;51.608;6.916;2023-09-19T06:24:03;15.90;99.90
15713;DHT22;7957;51.608;6.916;2023-09-19T06:26:30;16.00;99.90
15713;DHT22;7957;51.608;6.916;2023-09-19T06:28:57;16.00;99.90
15713;DHT22;7957;51.608;6.916;2023-09-19T06:31:25;16.00;99.90
15713;DHT22;7957;51.608;6.916;2023-09-19T06:33:52;16.00;99.90
15713;DHT22;7957;51.608;6.916;2023-09-19T06:36:19;16.00;99.90
15713;DHT22;7957;51.608;6.916;2023-09-19T06:38:47;16.00;99.90
15713;DHT22;7957;51.608;6.916;2023-09-19T06:41:17;16.00;99.90
15713;DHT22;7957;51.608;6.916;2023-09-19T06:43:44;16.10;99.90
15713;DHT22;7957;51.608;6.916;2023-09-19T06:46:11;16.10;99.90
15713;DHT22;7957;51.608;6.916;2023-09-19T06:48:38;16.10;99.90
15713;DHT22;7957;51.608;6.916;2023-09-19T06:51:05;16.10;99.90
15713;DHT22;7957;51.608;6.916;2023-09-19T06:53:32;16.10;99.90
15713;DHT22;7957;51.608;6.916;2023-09-19T06:56:01;16.10;99.90
15713;DHT22;7957;51.608;6.916;2023-09-19T06:58:28;16.10;99.90
15713;DHT22;7957;51.608;6.916;2023-09-19T07:00:57;16.20;99.90
15713;DHT22;7957;51.608;6.916;2023-09-19T07:03:23;16.20;99.90
15713;DHT22;7957;51.608;6.916;2023-09-19T07:05:52;16.20;99.90
15713;DHT22;7957;51.608;6.916;2023-09-19T07:08:21;16.20;99.90
15713;DHT22;7957;51.608;6.916;2023-09-19T07:10:48;16.20;99.90
15713;DHT22;7957;51.608;6.916;2023-09-19T07:13:17;16.30;99.90
15713;DHT22;7957;51.608;6.916;2023-09-19T07:15:45;16.30;99.90
15713;DHT22;7957;51.608;6.916;2023-09-19T07:18:13;16.30;99.90
15713;DHT22;7957;51.608;6.916;2023-09-19T07:20:40;16.30;99.90
15713;DHT22;7957;51.608;6.916;2023-09-19T07:23:15;16.40;99.90
15713;DHT22;7957;51.608;6.916;2023-09-19T07:25:43;16.40;99.90
15713;DHT22;7957;51.608;6.916;2023-09-19T07:28:11;16.40;99.90
15713;DHT22;7957;51.608;6.916;2023-09-19T07:30:40;16.40;99.90
15713;DHT22;7957;51.608;6.916;2023-09-19T07:33:08;16.40;99.90
15713;DHT22;7957;51.608;6.916;2023-09-19T07:35:36;16.50;99.90
15713;DHT22;7957;51.608;6.916;2023-09-19T07:38:05;16.50;99.90
15713;DHT22;7957;51.608;6.916;2023-09-19T07:40:32;16.50;99.90
15713;DHT22;7957;51.608;6.916;2023-09-19T07:42:59;16.50;99.90
15713;DHT22;7957;51.608;6.916;2023-09-19T07:45:27;16.50;99.90
15713;DHT22;7957;51.608;6.916;2023-09-19T07:47:57;16.50;99.90
15713;DHT22;7957;51.608;6.916;2023-09-19T07:50:26;16.50;99.90
15713;DHT22;7957;51.608;6.916;2023-09-19T07:52:54;16.60;99.90
15713;DHT22;7957;51.608;6.916;2023-09-19T07:55:22;16.60;99.90
15713;DHT22;7957;51.608;6.916;2023-09-19T07:57:51;16.60;99.90
15713;DHT22;7957;51.608;6.916;2023-09-19T08:00:18;16.60;99.90
15713;DHT22;7957;51.608;6.916;2023-09-19T08:02:45;16.60;99.90
15713;DHT22;7957;51.608;6.916;2023-09-19T08:05:18;16.70;99.90
15713;DHT22;7957;51.608;6.916;2023-09-19T08:07:46;16.70;99.90
15713;DHT22;7957;51.608;6.916;2023-09-19T08:10:14;16.70;99.90
15713;DHT22;7957;51.608;6.916;2023-09-19T08:12:46;16.70;99.90
15713;DHT22;7957;51.608;6.916;2023-09-19T08:15:15;16.70;99.90
15713;DHT22;7957;51.608;6.916;2023-09-19T08:17:42;16.70;99.90
15713;DHT22;7957;51.608;6.916;2023-09-19T08:20:12;16.80;99.90
15713;DHT22;7957;51.608;6.916;2023-09-19T08:22:44;16.80;99.90
15713;DHT22;7957;51.608;6.916;2023-09-19T08:25:14;16.90;99.90
15713;DHT22;7957;51.608;6.916;2023-09-19T08:27:44;16.90;99.90
15713;DHT22;7957;51.608;6.916;2023-09-19T08:30:14;16.90;99.90
15713;DHT22;7957;51.608;6.916;2023-09-19T08:32:41;16.90;99.90
15713;DHT22;7957;51.608;6.916;2023-09-19T08:35:09;17.00;99.90
15713;DHT22;7957;51.608;6.916;2023-09-19T08:37:36;17.00;99.90
15713;DHT22;7957;51.608;6.916;2023-09-19T08:40:05;17.00;99.90
15713;DHT22;7957;51.608;6.916;2023-09-19T08:42:50;17.10;99.90
15713;DHT22;7957;51.608;6.916;2023-09-19T08:45:19;17.20;99.90
15713;DHT22;7957;51.608;6.916;2023-09-19T08:47:57;17.20;99.90
15713;DHT22;7957;51.608;6.916;2023-09-19T08:50:41;17.30;99.90
15713;DHT22;7957;51.608;6.916;2023-09-19T08:53:15;17.30;99.90
15713;DHT22;7957;51.608;6.916;2023-09-19T08:55:45;17.40;99.90
15713;DHT22;7957;51.608;6.916;2023-09-19T08:58:14;17.40;77.80
15713;DHT22;7957;51.608;6.916;2023-09-19T09:00:46;17.50;37.20
15713;DHT22;7957;51.608;6.916;2023-09-19T09:03:15;17.50;1.00
15713;DHT22;7957;51.608;6.916;2023-09-19T09:05:47;17.50;1.00
15713;DHT22;7957;51.608;6.916;2023-09-19T09:08:16;17.50;1.00
15713;DHT22;7957;51.608;6.916;2023-09-19T09:10:47;17.60;1.00
15713;DHT22;7957;51.608;6.916;2023-09-19T09:13:14;17.60;1.00
15713;DHT22;7957;51.608;6.916;2023-09-19T09:15:42;17.60;99.90
15713;DHT22;7957;51.608;6.916;2023-09-19T09:18:13;17.70;99.90
15713;DHT22;7957;51.608;6.916;2023-09-19T09:20:40;17.70;99.90
15713;DHT22;7957;51.608;6.916;2023-09-19T09:23:07;17.70;20.50
15713;DHT22;7957;51.608;6.916;2023-09-19T09:25:52;17.70;1.00
15713;DHT22;7957;51.608;6.916;2023-09-19T09:28:23;17.80;1.00
15713;DHT22;7957;51.608;6.916;2023-09-19T09:30:51;17.70;99.90
15713;DHT22;7957;51.608;6.916;2023-09-19T09:33:21;17.80;99.90
15713;DHT22;7957;51.608;6.916;2023-09-19T09:35:49;17.80;99.90
15713;DHT22;7957;51.608;6.916;2023-09-19T09:38:19;17.80;18.00
15713;DHT22;7957;51.608;6.916;2023-09-19T09:40:47;17.80;1.00
15713;DHT22;7957;51.608;6.916;2023-09-19T09:43:33;17.80;1.00
15713;DHT22;7957;51.608;6.916;2023-09-19T09:46:10;17.80;1.00
15713;DHT22;7957;51.608;6.916;2023-09-19T09:48:56;17.80;1.00
15713;DHT22;7957;51.608;6.916;2023-09-19T09:52:06;17.80;99.90
15713;DHT22;7957;51.608;6.916;2023-09-19T09:54:58;17.90;99.90
15713;DHT22;7957;51.608;6.916;2023-09-19T09:57:27;17.90;99.90
15713;DHT22;7957;51.608;6.916;2023-09-19T09:59:56;17.90;99.90
15713;DHT22;7957;51.608;6.916;2023-09-19T10:02:42;17.90;99.90
15713;DHT22;7957;51.608;6.916;2023-09-19T10:05:21;17.90;83.80
15713;DHT22;7957;51.608;6.916;2023-09-19T10:07:55;17.90;13.60
15713;DHT22;7957;51.608;6.916;2023-09-19T10:10:30;17.90;1.00
15713;DHT22;7957;51.608;6.916;2023-09-19T10:13:09;17.90;1.00
15713;DHT22;7957;51.608;6.916;2023-09-19T10:15:39;17.90;1.00
15713;DHT22;7957;51.608;6.916;2023-09-19T10:18:10;17.90;1.00
15713;DHT22;7957;51.608;6.916;2023-09-19T10:20:49;18.00;1.00
15713;DHT22;7957;51.608;6.916;2023-09-19T10:23:23;18.00;1.00
15713;DHT22;7957;51.608;6.916;2023-09-19T10:25:53;18.00;1.00
15713;DHT22;7957;51.608;6.916;2023-09-19T10:28:21;17.90;99.90
15713;DHT22;7957;51.608;6.916;2023-09-19T10:30:52;18.00;99.90
15713;DHT22;7957;51.608;6.916;2023-09-19T10:33:20;18.00;99.90
15713;DHT22;7957;51.608;6.916;2023-09-19T10:35:49;18.00;99.90
15713;DHT22;7957;51.608;6.916;2023-09-19T10:38:25;18.10;99.90
15713;DHT22;7957;51.608;6.916;2023-09-19T10:40:53;18.10;99.90
15713;DHT22;7957;51.608;6.916;2023-09-19T10:43:27;18.10;99.90
15713;DHT22;7957;51.608;6.916;2023-09-19T10:46:01;18.10;99.90
15713;DHT22;7957;51.608;6.916;2023-09-19T10:48:29;18.10;60.40
15713;DHT22;7957;51.608;6.916;2023-09-19T10:51:08;18.10;13.60
15713;DHT22;7957;51.608;6.916;2023-09-19T10:53:47;18.10;3.20
15713;DHT22;7957;51.608;6.916;2023-09-19T10:56:21;18.20;1.00
15713;DHT22;7957;51.608;6.916;2023-09-19T10:58:50;18.20;1.00
15713;DHT22;7957;51.608;6.916;2023-09-19T11:01:17;18.20;1.00
15713;DHT22;7957;51.608;6.916;2023-09-19T11:03:45;18.30;1.00
15713;DHT22;7957;51.608;6.916;2023-09-19T11:06:15;18.30;1.00
15713;DHT22;7957;51.608;6.916;2023-09-19T11:08:58;18.40;1.00
15713;DHT22;7957;51.608;6.916;2023-09-19T11:11:40;18.50;1.00
15713;DHT22;7957;51.608;6.916;2023-09-19T11:14:28;18.70;1.00
15713;DHT22;7957;51.608;6.916;2023-09-19T11:20:23;19.40;1.00
15713;DHT22;7957;51.608;6.916;2023-09-19T11:23:28;19.60;1.00
15713;DHT22;7957;51.608;6.916;2023-09-19T11:25:57;19.80;99.90
15713;DHT22;7957;51.608;6.916;2023-09-19T11:28:32;19.80;99.90
15713;DHT22;7957;51.608;6.916;2023-09-19T11:30:58;19.80;99.90
15713;DHT22;7957;51.608;6.916;2023-09-19T11:33:27;19.70;99.90
15713;DHT22;7957;51.608;6.916;2023-09-19T11:35:59;19.70;99.90
15713;DHT22;7957;51.608;6.916;2023-09-19T11:39:00;19.80;99.90
15713;DHT22;7957;51.608;6.916;2023-09-19T11:41:39;19.90;99.90
15713;DHT22;7957;51.608;6.916;2023-09-19T11:44:34;20.00;39.40
15713;DHT22;7957;51.608;6.916;2023-09-19T11:47:06;20.00;1.00
15713;DHT22;7957;51.608;6.916;2023-09-19T11:49:35;20.10;1.00
15713;DHT22;7957;51.608;6.916;2023-09-19T11:52:18;20.10;1.00
15713;DHT22;7957;51.608;6.916;2023-09-19T11:54:54;20.20;1.00
15713;DHT22;7957;51.608;6.916;2023-09-19T11:57:24;20.20;1.00
15713;DHT22;7957;51.608;6.916;2023-09-19T11:59:53;20.20;1.00
15713;DHT22;7957;51.608;6.916;2023-09-19T12:02:43;20.30;1.00
15713;DHT22;7957;51.608;6.916;2023-09-19T12:05:17;20.30;1.00
15713;DHT22;7957;51.608;6.916;2023-09-19T12:08:00;20.40;1.00
15713;DHT22;7957;51.608;6.916;2023-09-19T12:10:33;20.60;1.00
15713;DHT22;7957;51.608;6.916;2023-09-19T12:13:02;20.90;99.90
15713;DHT22;7957;51.608;6.916;2023-09-19T12:15:34;21.10;99.90
15713;DHT22;7957;51.608;6.916;2023-09-19T12:18:05;21.20;99.90
15713;DHT22;7957;51.608;6.916;2023-09-19T12:20:43;21.20;99.90
15713;DHT22;7957;51.608;6.916;2023-09-19T12:23:13;21.30;99.90
15713;DHT22;7957;51.608;6.916;2023-09-19T12:25:42;21.40;99.90
15713;DHT22;7957;51.608;6.916;2023-09-19T12:28:13;21.40;40.50
15713;DHT22;7957;51.608;6.916;2023-09-19T12:30:42;21.40;1.20
15713;DHT22;7957;51.608;6.916;2023-09-19T12:33:15;21.40;1.00
15713;DHT22;7957;51.608;6.916;2023-09-19T12:35:44;21.50;1.00
15713;DHT22;7957;51.608;6.916;2023-09-19T12:38:25;21.60;1.00
15713;DHT22;7957;51.608;6.916;2023-09-19T12:40:54;21.60;1.00
15713;DHT22;7957;51.608;6.916;2023-09-19T12:43:23;21.50;1.00
15713;DHT22;7957;51.608;6.916;2023-09-19T12:45:50;21.50;1.00
15713;DHT22;7957;51.608;6.916;2023-09-19T12:48:23;21.50;1.00
15713;DHT22;7957;51.608;6.916;2023-09-19T12:51:01;21.50;1.00
15713;DHT22;7957;51.608;6.916;2023-09-19T12:53:32;21.50;1.00
15713;DHT22;7957;51.608;6.916;2023-09-19T12:56:04;21.40;1.00
15713;DHT22;7957;51.608;6.916;2023-09-19T12:58:48;21.30;1.00
15713;DHT22;7957;51.608;6.916;2023-09-19T13:01:16;21.30;99.90
15713;DHT22;7957;51.608;6.916;2023-09-19T13:04:14;21.20;99.90
15713;DHT22;7957;51.608;6.916;2023-09-19T13:06:43;21.10;99.90
15713;DHT22;7957;51.608;6.916;2023-09-19T13:09:11;21.00;99.90
15713;DHT22;7957;51.608;6.916;2023-09-19T13:11:42;20.90;99.90
15713;DHT22;7957;51.608;6.916;2023-09-19T13:14:17;20.90;99.90
15713;DHT22;7957;51.608;6.916;2023-09-19T13:17:09;20.80;99.90
15713;DHT22;7957;51.608;6.916;2023-09-19T13:19:45;20.80;99.90
15713;DHT22;7957;51.608;6.916;2023-09-19T13:22:38;20.70;99.90
15713;DHT22;7957;51.608;6.916;2023-09-19T13:25:07;20.60;99.90
15713;DHT22;7957;51.608;6.916;2023-09-19T13:27:39;20.60;99.90
15713;DHT22;7957;51.608;6.916;2023-09-19T13:30:10;20.60;99.90
15713;DHT22;7957;51.608;6.916;2023-09-19T13:32:40;20.50;99.90
15713;DHT22;7957;51.608;6.916;2023-09-19T13:35:14;20.50;99.90
15713;DHT22;7957;51.608;6.916;2023-09-19T13:37:42;20.50;99.90
15713;DHT22;7957;51.608;6.916;2023-09-19T13:40:11;20.40;99.90
15713;DHT22;7957;51.608;6.916;2023-09-19T13:42:38;20.40;99.90
15713;DHT22;7957;51.608;6.916;2023-09-19T13:45:07;20.40;99.90
15713;DHT22;7957;51.608;6.916;2023-09-19T13:47:37;20.30;94.80
15713;DHT22;7957;51.608;6.916;2023-09-19T13:50:05;20.30;85.60
15713;DHT22;7957;51.608;6.916;2023-09-19T13:52:36;20.30;93.20
15713;DHT22;7957;51.608;6.916;2023-09-19T13:55:04;20.30;92.70
15713;DHT22;7957;51.608;6.916;2023-09-19T13:57:34;20.30;81.20
15713;DHT22;7957;51.608;6.916;2023-09-19T14:00:03;20.30;62.40
15713;DHT22;7957;51.608;6.916;2023-09-19T14:02:32;20.30;44.30
15713;DHT22;7957;51.608;6.916;2023-09-19T14:04:59;20.20;46.90
15713;DHT22;7957;51.608;6.916;2023-09-19T14:07:26;20.20;46.40
15713;DHT22;7957;51.608;6.916;2023-09-19T14:09:56;20.20;30.30
15713;DHT22;7957;51.608;6.916;2023-09-19T14:12:23;20.20;24.00
15713;DHT22;7957;51.608;6.916;2023-09-19T14:14:50;20.20;21.30
15713;DHT22;7957;51.608;6.916;2023-09-19T14:17:21;20.20;22.40
15713;DHT22;7957;51.608;6.916;2023-09-19T14:19:52;20.20;12.00
15713;DHT22;7957;51.608;6.916;2023-09-19T14:22:19;20.10;9.00
15713;DHT22;7957;51.608;6.916;2023-09-19T14:24:46;20.10;8.80
15713;DHT22;7957;51.608;6.916;2023-09-19T14:27:13;20.10;7.40
15713;DHT22;7957;51.608;6.916;2023-09-19T14:29:40;20.10;14.20
15713;DHT22;7957;51.608;6.916;2023-09-19T14:32:08;20.00;1.00
15713;DHT22;7957;51.608;6.916;2023-09-19T14:34:35;20.00;1.00
15713;DHT22;7957;51.608;6.916;2023-09-19T14:37:09;20.00;1.00
15713;DHT22;7957;51.608;6.916;2023-09-19T14:39:36;19.90;1.00
15713;DHT22;7957;51.608;6.916;2023-09-19T14:42:04;19.90;1.00
15713;DHT22;7957;51.608;6.916;2023-09-19T14:44:31;19.90;1.00
15713;DHT22;7957;51.608;6.916;2023-09-19T14:46:58;19.90;9.20
15713;DHT22;7957;51.608;6.916;2023-09-19T14:49:25;19.90;10.20
15713;DHT22;7957;51.608;6.916;2023-09-19T14:51:52;19.80;10.80
15713;DHT22;7957;51.608;6.916;2023-09-19T14:54:21;19.80;17.30
15713;DHT22;7957;51.608;6.916;2023-09-19T14:56:49;19.80;29.70
15713;DHT22;7957;51.608;6.916;2023-09-19T14:59:29;19.80;26.90
15713;DHT22;7957;51.608;6.916;2023-09-19T15:01:56;19.70;26.00
15713;DHT22;7957;51.608;6.916;2023-09-19T15:04:23;19.70;41.00
15713;DHT22;7957;51.608;6.916;2023-09-19T15:06:52;19.70;41.00
15713;DHT22;7957;51.608;6.916;2023-09-19T15:09:22;19.70;37.90
15713;DHT22;7957;51.608;6.916;2023-09-19T15:11:51;19.70;51.90
15713;DHT22;7957;51.608;6.916;2023-09-19T15:14:19;19.70;60.30
15713;DHT22;7957;51.608;6.916;2023-09-19T15:16:46;19.70;46.90
15713;DHT22;7957;51.608;6.916;2023-09-19T15:19:13;19.70;24.20
15713;DHT22;7957;51.608;6.916;2023-09-19T15:21:41;19.70;41.10
15713;DHT22;7957;51.608;6.916;2023-09-19T15:24:08;19.60;55.70
15713;DHT22;7957;51.608;6.916;2023-09-19T15:26:37;19.60;52.80
15713;DHT22;7957;51.608;6.916;2023-09-19T15:29:05;19.60;76.00
15713;DHT22;7957;51.608;6.916;2023-09-19T15:31:32;19.60;48.50
15713;DHT22;7957;51.608;6.916;2023-09-19T15:33:59;19.60;55.50
15713;DHT22;7957;51.608;6.916;2023-09-19T15:36:26;19.60;50.60
15713;DHT22;7957;51.608;6.916;2023-09-19T15:39:04;19.50;33.40
15713;DHT22;7957;51.608;6.916;2023-09-19T15:41:33;19.50;53.60
15713;DHT22;7957;51.608;6.916;2023-09-19T15:44:03;19.50;46.90
15713;DHT22;7957;51.608;6.916;2023-09-19T15:46:40;19.50;49.70
15713;DHT22;7957;51.608;6.916;2023-09-19T15:49:10;19.50;41.00
15713;DHT22;7957;51.608;6.916;2023-09-19T15:51:37;19.40;20.20
15713;DHT22;7957;51.608;6.916;2023-09-19T15:54:08;19.40;32.00
15713;DHT22;7957;51.608;6.916;2023-09-19T15:56:36;19.40;59.40
15713;DHT22;7957;51.608;6.916;2023-09-19T15:59:05;19.40;81.90
15713;DHT22;7957;51.608;6.916;2023-09-19T16:01:32;19.40;52.30
15713;DHT22;7957;51.608;6.916;2023-09-19T16:03:58;19.40;53.70
15713;DHT22;7957;51.608;6.916;2023-09-19T16:06:28;19.40;56.30
15713;DHT22;7957;51.608;6.916;2023-09-19T16:08:58;19.40;72.60
15713;DHT22;7957;51.608;6.916;2023-09-19T16:11:29;19.30;49.70
15713;DHT22;7957;51.608;6.916;2023-09-19T16:13:58;19.30;51.00